Time;durP1;ratioP1;P1;durP2;ratioP2;P2;SDS_P1;SDS_P2;PMS_P1;PMS_P2;Temp;Humidity;BMP_temperature;BMP_pressure;BME280_temperature;BME280_humidity;BME280_pressure;Samples;Min_cycle;Max_cycle;Signal;HPM_P1;HPM_P2
2023/07/22 00:00:26;;;;;;;2.05;1.25;;;19.20;99.90;;;;;;5036360;28;20444;-78
2023/07/22 00:02:52;;;;;;;3.78;1.70;;;19.20;99.90;;;;;;5054720;28;20033;-78
2023/07/22 00:05:23;;;;;;;2.17;1.52;;;19.20;99.90;;;;;;5054322;28;20049;-78
2023/07/22 00:07:51;;;;;;;1.88;1.35;;;19.20;99.90;;;;;;5054511;28;20017;-79
2023/07/22 00:10:17;;;;;;;2.33;1.55;;;19.30;99.90;;;;;;5054562;28;20118;-78
2023/07/22 00:12:43;;;;;;;2.58;1.27;;;19.30;99.90;;;;;;5054529;28;20040;-78
2023/07/22 00:15:11;;;;;;;2.22;1.42;;;19.30;99.90;;;;;;5036893;28;20021;-79
2023/07/22 00:17:38;;;;;;;4.55;1.52;;;19.30;99.90;;;;;;5033001;28;20469;-78
2023/07/22 00:20:04;;;;;;;2.55;1.52;;;19.30;99.90;;;;;;5053779;28;20029;-78
2023/07/22 00:22:31;;;;;;;3.28;1.85;;;19.20;99.90;;;;;;5032969;28;20033;-78
2023/07/22 00:24:59;;;;;;;4.82;1.23;;;19.20;99.90;;;;;;5052948;28;20029;-78
2023/07/22 00:27:25;;;;;;;2.92;1.52;;;19.20;99.90;;;;;;5035099;28;20036;-78
2023/07/22 00:29:50;;;;;;;3.55;1.40;;;19.10;99.90;;;;;;5036541;28;20029;-78
2023/07/22 00:32:16;;;;;;;2.20;1.40;;;19.10;99.90;;;;;;5054242;28;20025;-79
2023/07/22 00:34:42;;;;;;;4.13;1.50;;;19.20;99.90;;;;;;5053603;28;20389;-78
2023/07/22 00:37:07;;;;;;;5.63;1.35;;;19.10;99.90;;;;;;5054585;28;20025;-81
2023/07/22 00:39:33;;;;;;;4.28;1.42;;;19.20;99.90;;;;;;5054379;28;20033;-80
2023/07/22 00:41:58;;;;;;;2.13;1.42;;;19.20;99.90;;;;;;5054925;28;20029;-81
2023/07/22 00:44:24;;;;;;;5.45;2.63;;;19.20;99.90;;;;;;5036739;28;20074;-80
2023/07/22 00:46:57;;;;;;;8.07;3.88;;;19.20;99.90;;;;;;5037148;28;20028;-80
2023/07/22 00:49:25;;;;;;;3.25;1.95;;;19.20;99.90;;;;;;5053836;28;20485;-80
2023/07/22 00:51:51;;;;;;;3.08;1.45;;;19.10;99.90;;;;;;5036681;28;20051;-81
2023/07/22 00:54:17;;;;;;;5.80;1.65;;;19.10;99.90;;;;;;5054792;28;20040;-81
2023/07/22 00:56:43;;;;;;;3.33;1.40;;;19.10;99.90;;;;;;5053806;28;20446;-80
2023/07/22 00:59:09;;;;;;;3.60;1.55;;;19.10;99.90;;;;;;5037251;28;20029;-80
2023/07/22 01:01:34;;;;;;;2.30;1.50;;;19.10;99.90;;;;;;5053870;28;20440;-80
2023/07/22 01:04:01;;;;;;;2.85;1.42;;;19.00;99.90;;;;;;5054652;28;20037;-80
2023/07/22 01:06:29;;;;;;;1.80;1.30;;;19.00;99.90;;;;;;5032218;28;20112;-80
2023/07/22 01:08:57;;;;;;;3.53;1.13;;;18.90;99.90;;;;;;5033267;28;20121;-80
2023/07/22 01:11:23;;;;;;;1.83;1.20;;;18.90;99.90;;;;;;5032869;28;20065;-80
2023/07/22 01:13:49;;;;;;;2.47;1.30;;;18.80;99.90;;;;;;5033368;28;20018;-80
2023/07/22 01:16:15;;;;;;;3.38;1.80;;;18.80;99.90;;;;;;5033087;28;20029;-80
2023/07/22 01:18:42;;;;;;;2.92;1.60;;;18.70;99.90;;;;;;5032774;28;20055;-81
2023/07/22 01:21:09;;;;;;;2.38;1.35;;;18.70;99.90;;;;;;5034046;28;20030;-81
2023/07/22 01:23:36;;;;;;;2.55;1.40;;;18.70;99.90;;;;;;5032797;28;20037;-80
2023/07/22 01:26:02;;;;;;;5.03;1.27;;;18.70;99.90;;;;;;5033454;28;20107;-81
2023/07/22 01:28:28;;;;;;;2.00;1.55;;;18.70;99.90;;;;;;5033674;28;20124;-81
2023/07/22 01:30:54;;;;;;;4.05;1.63;;;18.60;99.90;;;;;;5033074;28;20056;-81
2023/07/22 01:33:19;;;;;;;2.22;1.40;;;18.60;99.90;;;;;;5034478;28;20035;-81
2023/07/22 01:35:45;;;;;;;4.55;1.70;;;18.60;99.90;;;;;;5032710;28;20056;-81
2023/07/22 01:38:11;;;;;;;3.08;1.48;;;18.50;99.90;;;;;;5034384;28;20459;-81
2023/07/22 01:40:36;;;;;;;1.85;1.30;;;18.60;99.90;;;;;;5033403;28;20052;-81
2023/07/22 01:43:02;;;;;;;3.22;1.50;;;18.60;99.90;;;;;;5034091;28;20025;-80
2023/07/22 01:45:27;;;;;;;1.95;1.33;;;18.50;99.90;;;;;;5032375;28;20030;-80
2023/07/22 01:47:53;;;;;;;3.25;1.30;;;18.50;99.90;;;;;;5032817;28;20025;-81
2023/07/22 01:50:18;;;;;;;3.08;1.60;;;18.50;99.90;;;;;;5033772;28;20029;-81
2023/07/22 01:52:46;;;;;;;2.90;1.20;;;18.50;99.90;;;;;;5033303;28;20026;-82
2023/07/22 01:55:12;;;;;;;2.60;1.40;;;18.60;99.90;;;;;;5033745;28;20455;-80
2023/07/22 01:57:37;;;;;;;4.00;1.50;;;18.50;99.90;;;;;;5032460;28;20028;-80
2023/07/22 02:00:05;;;;;;;2.00;1.40;;;18.50;99.90;;;;;;5033807;28;20496;-81
2023/07/22 02:02:30;;;;;;;4.93;1.55;;;18.50;99.90;;;;;;5033461;28;20052;-80
2023/07/22 02:04:56;;;;;;;4.78;1.33;;;18.40;99.90;;;;;;5041199;28;20474;-79
2023/07/22 02:07:22;;;;;;;1.95;1.30;;;18.30;99.90;;;;;;5035867;28;20086;-80
2023/07/22 02:09:47;;;;;;;2.38;1.55;;;18.30;99.90;;;;;;5052986;28;20029;-80
2023/07/22 02:12:13;;;;;;;3.33;1.70;;;18.20;99.90;;;;;;5053613;28;20059;-80
2023/07/22 02:14:38;;;;;;;3.13;1.70;;;18.20;99.90;;;;;;5035363;28;20028;-80
2023/07/22 02:17:04;;;;;;;4.28;1.70;;;18.20;99.90;;;;;;5053696;28;20064;-80
2023/07/22 02:19:30;;;;;;;4.85;1.60;;;18.20;99.90;;;;;;5035347;28;20029;-79
2023/07/22 02:21:56;;;;;;;2.70;1.58;;;18.10;99.90;;;;;;5053786;28;20033;-80
2023/07/22 02:24:21;;;;;;;2.65;1.55;;;18.10;99.90;;;;;;5053807;28;20104;-80
2023/07/22 02:26:47;;;;;;;3.97;1.52;;;18.00;99.90;;;;;;5053174;28;20095;-79
2023/07/22 02:29:12;;;;;;;3.67;1.52;;;18.00;99.90;;;;;;5035740;28;20025;-80
2023/07/22 02:31:39;;;;;;;2.22;1.60;;;17.90;99.90;;;;;;5035137;28;20116;-80
2023/07/22 02:34:05;;;;;;;4.35;1.80;;;17.80;99.90;;;;;;5035426;28;20044;-80
2023/07/22 02:36:31;;;;;;;4.28;1.80;;;17.80;99.90;;;;;;5052973;28;20029;-80
2023/07/22 02:38:56;;;;;;;4.60;1.80;;;17.80;99.90;;;;;;5035689;28;20028;-80
2023/07/22 02:41:22;;;;;;;3.90;1.73;;;17.70;99.90;;;;;;5053297;28;20029;-80
2023/07/22 02:43:48;;;;;;;4.10;1.88;;;17.70;99.90;;;;;;5035406;28;20028;-80
2023/07/22 02:46:13;;;;;;;4.43;1.75;;;17.80;99.90;;;;;;5053936;28;20108;-80
2023/07/22 02:48:39;;;;;;;2.88;1.40;;;17.70;99.90;;;;;;5035040;28;20508;-80
2023/07/22 02:51:09;;;;;;;5.18;2.10;;;17.70;99.90;;;;;;5037840;28;20119;-80
2023/07/22 02:53:38;;;;;;;3.58;1.70;;;17.60;99.90;;;;;;5038504;28;20061;-79
2023/07/22 02:56:07;;;;;;;2.63;1.48;;;17.50;99.90;;;;;;5039264;28;20032;-80
2023/07/22 02:58:33;;;;;;;3.15;1.90;;;17.50;99.90;;;;;;5038801;28;20025;-79
2023/07/22 03:00:59;;;;;;;4.40;1.58;;;17.50;99.90;;;;;;5056667;28;20071;-79
2023/07/22 03:03:25;;;;;;;2.92;1.40;;;17.40;99.90;;;;;;5038980;28;20433;-80
2023/07/22 03:05:51;;;;;;;3.72;1.73;;;17.50;99.90;;;;;;5055942;28;20052;-79
2023/07/22 03:08:18;;;;;;;2.72;1.70;;;17.40;99.90;;;;;;5038591;28;20021;-79
2023/07/22 03:10:48;;;;;;;5.40;1.65;;;17.40;99.90;;;;;;5038315;28;20029;-79
2023/07/22 03:13:15;;;;;;;3.70;1.60;;;17.40;99.90;;;;;;5056267;28;20082;-80
2023/07/22 03:15:40;;;;;;;4.03;2.00;;;17.40;99.90;;;;;;5038372;28;20115;-79
2023/07/22 03:18:06;;;;;;;5.90;1.95;;;17.30;99.90;;;;;;5038226;28;20484;-79
2023/07/22 03:20:32;;;;;;;3.05;1.65;;;17.30;99.90;;;;;;5038238;28;20078;-79
2023/07/22 03:22:57;;;;;;;5.60;1.75;;;17.30;99.90;;;;;;5038611;28;20462;-79
2023/07/22 03:25:23;;;;;;;3.47;1.75;;;17.30;99.90;;;;;;5056156;28;20154;-79
2023/07/22 03:27:49;;;;;;;4.03;1.45;;;17.20;99.90;;;;;;5038139;28;20029;-79
2023/07/22 03:30:16;;;;;;;3.20;1.55;;;17.20;99.90;;;;;;5038460;28;20040;-79
2023/07/22 03:32:43;;;;;;;4.68;1.80;;;17.10;99.90;;;;;;5037920;28;20021;-80
2023/07/22 03:35:10;;;;;;;3.70;1.70;;;17.10;99.90;;;;;;5056534;28;20029;-79
2023/07/22 03:37:36;;;;;;;1.63;1.27;;;17.10;99.90;;;;;;5055368;28;20111;-79
2023/07/22 03:40:19;;;;;;;3.80;1.98;;;17.20;99.90;;;;;;5055844;28;20140;-80
2023/07/22 03:42:51;;;;;;;2.75;1.63;;;17.20;99.90;;;;;;5037718;28;20037;-80
2023/07/22 03:45:18;;;;;;;3.70;1.67;;;17.10;99.90;;;;;;5055926;28;20017;-80
2023/07/22 03:47:45;;;;;;;3.15;1.90;;;17.10;99.90;;;;;;5037727;28;20036;-80
2023/07/22 03:50:11;;;;;;;2.17;1.55;;;17.10;99.90;;;;;;5037993;28;20492;-80
2023/07/22 03:52:37;;;;;;;6.15;1.90;;;16.90;99.90;;;;;;5055246;28;20025;-79
2023/07/22 03:55:03;;;;;;;3.15;1.77;;;16.90;99.90;;;;;;5055810;28;20374;-79
2023/07/22 03:57:29;;;;;;;4.07;1.70;;;16.90;99.90;;;;;;5055472;28;20097;-80
2023/07/22 03:59:56;;;;;;;1.77;1.42;;;16.90;99.90;;;;;;5037620;28;20032;-80
2023/07/22 04:02:21;;;;;;;3.00;1.50;;;16.90;99.90;;;;;;5037285;28;20040;-81
2023/07/22 04:04:47;;;;;;;2.22;1.50;;;16.90;99.90;;;;;;5055216;28;20037;-81
2023/07/22 04:07:13;;;;;;;4.82;1.80;;;16.90;99.90;;;;;;5038349;28;20033;-80
2023/07/22 04:09:38;;;;;;;3.80;1.50;;;16.80;99.90;;;;;;5037784;28;20551;-80
2023/07/22 04:12:04;;;;;;;3.65;1.80;;;16.80;99.90;;;;;;5038166;28;20029;-80
2023/07/22 04:14:30;;;;;;;2.55;1.60;;;16.70;99.90;;;;;;5037836;28;20107;-80
2023/07/22 04:16:56;;;;;;;3.85;1.73;;;16.60;99.90;;;;;;5037351;28;20113;-80
2023/07/22 04:19:21;;;;;;;2.42;1.55;;;16.70;99.90;;;;;;5037578;28;20166;-80
2023/07/22 04:21:47;;;;;;;3.33;2.00;;;16.70;99.90;;;;;;5054623;28;20466;-80
2023/07/22 04:24:12;;;;;;;5.38;1.90;;;16.70;99.90;;;;;;5055064;28;20025;-80
2023/07/22 04:26:38;;;;;;;4.20;2.00;;;16.70;99.90;;;;;;5036999;28;20052;-79
2023/07/22 04:29:04;;;;;;;3.60;2.00;;;16.70;99.90;;;;;;5055017;28;20110;-80
2023/07/22 04:31:30;;;;;;;4.50;2.10;;;16.70;99.90;;;;;;5037477;28;20060;-80
2023/07/22 04:33:57;;;;;;;2.85;1.92;;;16.70;99.90;;;;;;5036726;28;20036;-80
2023/07/22 04:36:23;;;;;;;3.90;1.85;;;16.80;99.90;;;;;;5037435;28;20082;-80
2023/07/22 04:38:48;;;;;;;3.10;1.70;;;16.80;99.90;;;;;;5054513;28;20033;-80
2023/07/22 04:41:14;;;;;;;3.47;1.90;;;16.80;99.90;;;;;;5054539;28;20036;-80
2023/07/22 04:43:40;;;;;;;3.35;1.80;;;16.90;99.90;;;;;;5036738;28;20566;-81
2023/07/22 04:46:06;;;;;;;4.35;2.10;;;16.90;99.90;;;;;;5036868;28;20052;-80
2023/07/22 04:48:32;;;;;;;2.47;2.00;;;16.90;99.90;;;;;;5037320;28;20060;-80
2023/07/22 04:50:57;;;;;;;3.35;2.00;;;16.90;99.90;;;;;;5054414;28;20029;-81
2023/07/22 04:53:23;;;;;;;3.15;1.77;;;16.90;99.90;;;;;;5037011;28;20029;-80
2023/07/22 04:55:48;;;;;;;3.55;2.10;;;16.90;99.90;;;;;;5054297;28;20104;-80
2023/07/22 04:58:14;;;;;;;2.95;2.03;;;16.90;99.90;;;;;;5036774;28;20029;-81
2023/07/22 05:00:39;;;;;;;5.35;2.15;;;16.90;99.90;;;;;;5036331;28;20033;-80
2023/07/22 05:03:05;;;;;;;4.32;1.73;;;16.90;99.90;;;;;;5054252;28;20055;-80
2023/07/22 05:05:31;;;;;;;3.63;2.03;;;16.90;99.90;;;;;;5033316;28;20046;-81
2023/07/22 05:07:57;;;;;;;5.65;1.92;;;16.90;99.90;;;;;;5032940;28;20518;-80
2023/07/22 05:10:23;;;;;;;3.85;1.83;;;16.90;99.90;;;;;;5033475;28;20064;-81
2023/07/22 05:12:48;;;;;;;4.18;2.03;;;16.90;99.90;;;;;;5032138;28;20030;-82
2023/07/22 05:15:15;;;;;;;4.20;2.45;;;17.00;99.90;;;;;;5033252;28;20112;-80
2023/07/22 05:17:41;;;;;;;3.42;1.90;;;17.00;99.90;;;;;;5032885;28;20496;-79
2023/07/22 05:20:09;;;;;;;3.90;2.17;;;17.10;99.90;;;;;;5032883;28;20072;-79
2023/07/22 05:22:36;;;;;;;3.65;2.05;;;17.10;99.90;;;;;;5033902;28;20030;-80
2023/07/22 05:25:02;;;;;;;3.13;1.92;;;17.20;99.90;;;;;;5033006;28;20075;-81
2023/07/22 05:27:28;;;;;;;4.85;2.13;;;17.30;99.90;;;;;;5034138;28;20028;-80
2023/07/22 05:29:53;;;;;;;5.43;2.05;;;17.30;99.90;;;;;;5032798;28;20029;-80
2023/07/22 05:32:19;;;;;;;4.85;2.00;;;17.30;99.90;;;;;;5034084;28;20042;-80
2023/07/22 05:34:44;;;;;;;3.30;1.70;;;17.30;99.90;;;;;;5033723;28;20040;-79
2023/07/22 05:37:10;;;;;;;3.13;2.13;;;17.30;99.90;;;;;;5033772;28;20064;-80
2023/07/22 05:39:35;;;;;;;2.92;2.03;;;17.30;99.90;;;;;;5032789;28;20034;-79
2023/07/22 05:42:01;;;;;;;4.13;2.20;;;17.40;99.90;;;;;;5032489;28;20030;-79
2023/07/22 05:44:26;;;;;;;4.47;1.70;;;17.40;99.90;;;;;;5033017;28;20129;-81
2023/07/22 05:46:52;;;;;;;5.00;2.30;;;17.40;99.90;;;;;;5032527;28;20116;-80
2023/07/22 05:49:18;;;;;;;3.88;1.83;;;17.50;99.90;;;;;;5033972;28;20470;-80
2023/07/22 05:51:43;;;;;;;3.38;2.03;;;17.50;99.90;;;;;;5033485;28;20070;-79
2023/07/22 05:54:09;;;;;;;3.17;1.65;;;17.50;99.90;;;;;;5032880;28;20466;-80
2023/07/22 05:56:34;;;;;;;2.85;2.08;;;17.50;99.90;;;;;;5032894;28;20032;-80
2023/07/22 05:59:00;;;;;;;5.57;2.05;;;17.60;99.90;;;;;;5033196;28;20025;-80
2023/07/22 06:01:26;;;;;;;4.20;1.90;;;17.60;99.90;;;;;;5032756;28;20488;-80
2023/07/22 06:03:51;;;;;;;5.10;2.00;;;17.60;99.90;;;;;;5033011;28;20040;-79
2023/07/22 06:06:18;;;;;;;3.40;1.88;;;17.70;99.90;;;;;;5032490;28;20050;-80
2023/07/22 06:08:43;;;;;;;4.70;1.88;;;17.80;99.90;;;;;;5033339;28;20029;-80
2023/07/22 06:11:09;;;;;;;4.35;1.75;;;17.80;99.90;;;;;;5033684;28;20021;-80
2023/07/22 06:13:35;;;;;;;3.20;1.90;;;17.80;99.90;;;;;;5032604;28;20030;-80
2023/07/22 06:16:00;;;;;;;2.83;1.92;;;17.80;99.90;;;;;;5033282;28;20531;-80
2023/07/22 06:18:26;;;;;;;3.58;1.80;;;17.80;99.90;;;;;;5033651;28;20026;-81
2023/07/22 06:20:52;;;;;;;3.42;2.08;;;17.70;99.90;;;;;;5031788;28;20060;-79
2023/07/22 06:23:17;;;;;;;4.72;2.20;;;17.80;99.90;;;;;;5028480;28;20037;-80
2023/07/22 06:25:43;;;;;;;4.20;1.75;;;17.80;99.90;;;;;;5034897;28;20025;-80
2023/07/22 06:28:09;;;;;;;3.38;2.10;;;17.80;99.90;;;;;;5036809;28;20099;-81
2023/07/22 06:30:35;;;;;;;7.00;2.38;;;17.90;99.90;;;;;;5035799;28;20034;-81
2023/07/22 06:33:00;;;;;;;10.75;5.47;;;17.90;99.90;;;;;;5020688;28;20041;-81
2023/07/22 06:35:26;;;;;;;15.90;9.55;;;17.90;99.90;;;;;;5037065;28;20105;-81
2023/07/22 06:37:52;;;;;;;5.30;2.78;;;18.00;99.90;;;;;;5035876;28;20056;-80
2023/07/22 06:40:18;;;;;;;3.58;2.13;;;18.10;99.90;;;;;;5019146;28;20037;-81
2023/07/22 06:42:43;;;;;;;3.80;1.73;;;18.20;99.90;;;;;;5018343;28;20044;-81
2023/07/22 06:45:09;;;;;;;6.50;2.90;;;18.30;99.90;;;;;;5019015;28;20120;-81
2023/07/22 06:47:36;;;;;;;2.55;1.80;;;18.30;99.90;;;;;;5036816;28;20056;-81
2023/07/22 06:50:05;;;;;;;2.28;1.40;;;18.40;99.90;;;;;;5018674;28;20167;-80
2023/07/22 06:52:32;;;;;;;2.45;1.73;;;18.40;99.90;;;;;;5019199;28;20481;-81
2023/07/22 06:54:58;;;;;;;3.38;1.88;;;18.30;99.90;;;;;;5036508;28;20080;-81
2023/07/22 06:57:25;;;;;;;3.28;1.98;;;18.30;99.90;;;;;;5018724;28;20045;-81
2023/07/22 06:59:55;;;;;;;2.63;1.70;;;18.30;99.90;;;;;;5018114;28;20038;-81
2023/07/22 07:02:21;;;;;;;2.63;1.48;;;18.40;99.90;;;;;;5018391;28;20033;-81
2023/07/22 07:04:46;;;;;;;6.25;1.67;;;18.40;99.90;;;;;;5018148;28;20478;-81
2023/07/22 07:07:13;;;;;;;2.08;1.55;;;18.40;99.90;;;;;;5018190;28;20038;-81
2023/07/22 07:09:39;;;;;;;3.08;1.60;;;18.50;99.90;;;;;;5017905;28;20032;-79
2023/07/22 07:12:05;;;;;;;3.70;1.33;;;18.50;99.90;;;;;;5034918;28;20029;-80
2023/07/22 07:14:33;;;;;;;2.25;1.30;;;18.50;99.90;;;;;;5017902;28;20032;-80
2023/07/22 07:16:59;;;;;;;2.60;1.77;;;18.60;99.90;;;;;;5017692;28;20018;-79
2023/07/22 07:19:24;;;;;;;2.13;1.48;;;18.80;99.90;;;;;;5018237;28;20025;-80
2023/07/22 07:21:50;;;;;;;2.58;1.55;;;18.90;99.90;;;;;;5017380;28;20029;-79
2023/07/22 07:24:16;;;;;;;6.22;1.73;;;19.00;99.90;;;;;;5016963;28;20029;-79
2023/07/22 07:26:41;;;;;;;1.67;1.40;;;19.20;99.90;;;;;;5017396;28;20455;-79
2023/07/22 07:29:07;;;;;;;4.90;1.60;;;19.40;99.90;;;;;;5035169;28;20481;-79
2023/07/22 07:31:33;;;;;;;3.13;1.65;;;19.40;99.90;;;;;;5035235;28;20025;-80
2023/07/22 07:33:59;;;;;;;3.17;1.90;;;19.60;99.90;;;;;;5034827;28;20397;-79
2023/07/22 07:36:24;;;;;;;4.85;2.15;;;19.60;99.90;;;;;;5035607;28;20025;-79
2023/07/22 07:38:50;;;;;;;5.18;1.67;;;19.70;99.90;;;;;;5035050;28;20049;-79
2023/07/22 07:41:15;;;;;;;2.47;1.50;;;19.70;99.90;;;;;;5035683;28;20073;-80
2023/07/22 07:43:41;;;;;;;5.03;2.03;;;19.70;99.90;;;;;;5017757;28;20405;-80
2023/07/22 07:46:28;;;;;;;2.47;1.63;;;19.70;99.90;;;;;;5017075;28;20067;-80
2023/07/22 07:49:00;;;;;;;3.35;1.40;;;19.70;99.90;;;;;;5017183;28;20079;-80
2023/07/22 07:51:28;;;;;;;2.58;1.38;;;19.80;99.90;;;;;;5017245;28;20040;-81
2023/07/22 07:53:54;;;;;;;2.67;1.10;;;19.90;99.90;;;;;;5034428;28;20481;-80
2023/07/22 07:56:20;;;;;;;2.78;1.50;;;19.90;99.90;;;;;;5034954;28;20025;-81
2023/07/22 07:58:47;;;;;;;2.75;1.30;;;19.90;99.90;;;;;;5016649;28;20477;-80
2023/07/22 08:01:14;;;;;;;4.00;1.50;;;20.10;99.90;;;;;;5016999;28;20029;-81
2023/07/22 08:03:41;;;;;;;8.40;1.38;;;20.10;99.90;;;;;;5016803;28;20029;-80
2023/07/22 08:06:07;;;;;;;2.10;1.27;;;20.20;99.60;;;;;;5016431;28;20045;-80
2023/07/22 08:08:34;;;;;;;3.13;1.42;;;20.20;99.70;;;;;;5016359;28;20036;-79
2023/07/22 08:11:01;;;;;;;2.30;1.40;;;20.30;99.90;;;;;;5033229;28;20089;-80
2023/07/22 08:13:27;;;;;;;2.10;1.20;;;20.20;99.90;;;;;;5033962;28;20025;-81
2023/07/22 08:15:53;;;;;;;2.70;1.77;;;20.10;99.90;;;;;;5016106;28;20032;-80
2023/07/22 08:18:19;;;;;;;2.80;1.70;;;20.10;99.90;;;;;;5029636;28;20026;-77
2023/07/22 08:20:47;;;;;;;3.38;1.33;;;20.10;99.90;;;;;;5016729;28;20037;-79
2023/07/22 08:23:13;;;;;;;2.83;1.42;;;20.10;99.90;;;;;;5015968;28;20061;-78
2023/07/22 08:25:38;;;;;;;2.65;1.50;;;20.20;99.90;;;;;;5015251;28;20116;-77
2023/07/22 08:28:04;;;;;;;2.42;1.38;;;20.20;99.80;;;;;;5015481;28;20176;-78
2023/07/22 08:30:29;;;;;;;3.03;1.00;;;20.20;99.90;;;;;;5015854;28;20469;-77
2023/07/22 08:32:55;;;;;;;1.88;1.30;;;20.30;99.60;;;;;;5032715;28;20115;-78
2023/07/22 08:35:22;;;;;;;5.13;1.35;;;20.40;99.20;;;;;;5016616;28;20025;-79
2023/07/22 08:37:47;;;;;;;4.35;1.60;;;20.50;99.20;;;;;;5016080;28;20049;-80
2023/07/22 08:40:13;;;;;;;3.53;1.45;;;20.60;99.00;;;;;;5016447;28;20486;-79
2023/07/22 08:42:40;;;;;;;2.80;1.17;;;20.60;99.30;;;;;;5016234;28;20125;-77
2023/07/22 08:45:09;;;;;;;3.22;1.45;;;20.60;99.10;;;;;;5015661;28;20080;-78
2023/07/22 08:47:38;;;;;;;2.63;1.30;;;20.70;98.80;;;;;;5032171;28;20125;-78
2023/07/22 08:50:07;;;;;;;2.58;1.10;;;20.70;98.40;;;;;;5031389;28;20131;-77
2023/07/22 08:52:33;;;;;;;2.25;1.20;;;20.80;97.90;;;;;;5031268;28;20056;-78
2023/07/22 08:55:00;;;;;;;2.42;1.10;;;20.80;97.50;;;;;;5032517;28;20053;-77
2023/07/22 08:57:29;;;;;;;1.55;1.05;;;20.90;97.50;;;;;;5032030;28;20030;-78
2023/07/22 08:59:56;;;;;;;1.90;1.20;;;21.00;97.00;;;;;;5022377;28;20063;-78
2023/07/22 09:02:24;;;;;;;2.45;1.10;;;21.10;97.00;;;;;;5033208;28;20022;-76
2023/07/22 09:04:50;;;;;;;3.55;1.20;;;21.00;97.10;;;;;;5030462;28;20545;-79
2023/07/22 09:07:17;;;;;;;1.70;1.20;;;21.10;97.20;;;;;;5032771;28;20041;-78
2023/07/22 09:09:46;;;;;;;2.53;1.52;;;21.20;96.70;;;;;;5031408;28;20064;-78
2023/07/22 09:12:14;;;;;;;2.63;1.30;;;21.20;96.80;;;;;;5023807;28;20029;-76
2023/07/22 09:14:40;;;;;;;2.75;1.30;;;21.30;97.00;;;;;;5031405;28;20065;-77
2023/07/22 09:17:06;;;;;;;1.27;1.00;;;21.30;96.80;;;;;;5031427;28;20029;-75
2023/07/22 09:19:32;;;;;;;4.78;1.00;;;21.30;96.20;;;;;;5032178;28;20387;-77
2023/07/22 09:21:58;;;;;;;2.35;1.15;;;21.40;96.00;;;;;;5029744;28;20104;-78
2023/07/22 09:24:25;;;;;;;2.22;1.20;;;21.40;95.70;;;;;;5031829;28;20022;-78
2023/07/22 09:26:51;;;;;;;2.28;1.00;;;21.50;95.80;;;;;;5030253;28;20021;-77
2023/07/22 09:29:17;;;;;;;2.47;1.00;;;21.60;95.90;;;;;;5032640;28;20382;-78
2023/07/22 09:31:52;;;;;;;1.88;0.90;;;21.50;96.10;;;;;;5032814;28;20032;-77
2023/07/22 09:34:18;;;;;;;2.90;0.85;;;21.40;96.10;;;;;;5033103;28;20029;-78
2023/07/22 09:36:54;;;;;;;1.75;1.23;;;21.40;96.10;;;;;;5031449;28;20057;-78
2023/07/22 09:39:21;;;;;;;2.30;1.00;;;21.40;96.00;;;;;;5022013;28;20033;-79
2023/07/22 09:41:47;;;;;;;1.92;1.00;;;21.30;95.80;;;;;;5030981;28;20386;-76
2023/07/22 09:44:12;;;;;;;1.85;1.00;;;21.30;95.70;;;;;;5031046;28;20029;-76
2023/07/22 09:46:38;;;;;;;1.95;0.93;;;21.20;95.40;;;;;;5030803;28;20025;-75
2023/07/22 09:49:06;;;;;;;2.33;1.20;;;21.20;95.20;;;;;;5031549;28;20025;-78
2023/07/22 09:51:39;;;;;;;2.55;1.13;;;21.20;95.30;;;;;;5027202;28;20084;-78
2023/07/22 09:54:06;;;;;;;5.65;1.10;;;21.30;94.90;;;;;;5017504;28;20275;-78
2023/07/22 09:56:42;;;;;;;3.45;1.00;;;21.40;95.10;;;;;;5032454;28;20079;-77
2023/07/22 09:59:10;;;;;;;1.30;1.10;;;21.40;94.60;;;;;;5033036;28;20109;-77
2023/07/22 10:01:39;;;;;;;4.65;3.10;;;21.50;94.70;;;;;;5036883;28;20037;-78
2023/07/22 10:04:06;;;;;;;2.30;1.35;;;21.60;94.80;;;;;;5023629;28;20025;-78
2023/07/22 10:06:32;;;;;;;2.38;1.17;;;21.70;94.60;;;;;;5035021;28;20060;-76
2023/07/22 10:09:08;;;;;;;1.92;1.08;;;21.80;94.50;;;;;;5034843;28;20025;-76
2023/07/22 10:11:35;;;;;;;2.05;1.20;;;21.80;94.50;;;;;;5034937;28;20029;-80
2023/07/22 10:14:04;;;;;;;1.75;1.10;;;21.90;94.10;;;;;;5035925;28;20282;-80
2023/07/22 10:16:30;;;;;;;2.40;1.20;;;21.90;94.20;;;;;;5036239;28;20049;-80
2023/07/22 10:18:57;;;;;;;3.75;1.25;;;22.00;94.00;;;;;;5036239;28;20034;-80
2023/07/22 10:21:24;;;;;;;1.58;1.00;;;22.00;93.80;;;;;;5029303;28;20059;-79
2023/07/22 10:23:51;;;;;;;3.17;0.90;;;22.10;93.70;;;;;;5032266;28;20033;-78
2023/07/22 10:26:18;;;;;;;1.73;1.05;;;22.20;93.70;;;;;;5034535;28;20452;-80
2023/07/22 10:28:47;;;;;;;2.13;1.00;;;22.30;93.30;;;;;;5035386;28;20053;-77
2023/07/22 10:31:14;;;;;;;2.33;1.27;;;22.40;93.10;;;;;;5035281;28;20042;-74
2023/07/22 10:33:40;;;;;;;2.85;1.13;;;22.40;93.20;;;;;;5034257;28;20391;-76
2023/07/22 10:36:06;;;;;;;4.13;1.90;;;22.40;92.70;;;;;;5033683;28;20599;-76
2023/07/22 10:38:33;;;;;;;1.95;1.35;;;22.50;92.50;;;;;;5016338;28;20398;-76
2023/07/22 10:40:59;;;;;;;1.58;1.15;;;22.60;92.40;;;;;;5016353;28;20029;-76
2023/07/22 10:43:26;;;;;;;2.58;0.63;;;22.70;92.30;;;;;;5035029;28;20427;-76
2023/07/22 10:45:57;;;;;;;3.47;1.17;;;22.90;91.80;;;;;;5016653;28;20029;-77
2023/07/22 10:48:27;;;;;;;1.38;0.98;;;23.10;91.50;;;;;;5018574;28;20072;-77
2023/07/22 10:51:04;;;;;;;3.90;1.10;;;23.10;91.30;;;;;;5035578;28;20056;-78
2023/07/22 10:53:30;;;;;;;3.25;0.82;;;23.30;90.60;;;;;;5035020;28;20034;-78
2023/07/22 10:56:11;;;;;;;1.38;0.98;;;23.40;89.70;;;;;;5017196;28;20029;-76
2023/07/22 10:58:46;;;;;;;1.77;1.13;;;23.50;90.00;;;;;;5025495;28;20033;-78
2023/07/22 11:01:24;;;;;;;1.35;0.93;;;23.50;89.80;;;;;;5017644;28;20037;-77
2023/07/22 11:04:24;;;;;;;1.60;1.10;;;23.40;89.60;;;;;;5034846;28;20025;-77
2023/07/22 11:06:50;;;;;;;1.92;1.08;;;23.30;89.70;;;;;;4997526;28;20509;-77
2023/07/22 11:09:28;;;;;;;1.58;0.98;;;23.30;89.90;;;;;;5030703;28;20143;-78
2023/07/22 11:12:05;;;;;;;1.33;0.80;;;23.40;86.20;;;;;;5033733;28;20026;-78
2023/07/22 11:14:32;;;;;;;1.92;1.00;;;23.50;84.00;;;;;;5031340;28;20076;-78
2023/07/22 11:17:00;;;;;;;2.67;0.90;;;23.60;85.90;;;;;;5032779;28;20029;-76
2023/07/22 11:19:26;;;;;;;2.72;1.00;;;23.70;86.90;;;;;;5033754;28;20537;-76
2023/07/22 11:21:53;;;;;;;4.63;1.10;;;23.60;85.30;;;;;;5034521;28;20127;-77
2023/07/22 11:24:20;;;;;;;2.03;0.98;;;23.60;83.20;;;;;;5033586;28;20421;-76
2023/07/22 11:26:46;;;;;;;1.05;0.68;;;23.70;81.20;;;;;;5018135;28;20025;-78
2023/07/22 11:29:13;;;;;;;1.35;0.90;;;23.70;81.60;;;;;;5032433;28;20033;-78
2023/07/22 11:31:45;;;;;;;5.88;0.95;;;23.90;82.10;;;;;;5035068;28;20025;-78
2023/07/22 11:34:14;;;;;;;;;;;24.10;82.40;;;;;;5021055;28;20034;-78
2023/07/22 11:36:41;;;;;;;1.73;0.95;;;24.30;80.30;;;;;;5033804;28;19913;-78
2023/07/22 11:39:07;;;;;;;1.83;1.00;;;24.30;80.40;;;;;;5034608;28;20024;-78
2023/07/22 11:41:34;;;;;;;0.90;0.70;;;24.30;80.10;;;;;;5025295;28;20324;-79
2023/07/22 11:44:01;;;;;;;2.85;1.13;;;24.20;78.70;;;;;;5034960;28;20025;-78
2023/07/22 11:46:27;;;;;;;1.92;0.60;;;24.20;79.10;;;;;;5034585;28;20100;-78
2023/07/22 11:48:54;;;;;;;1.85;0.88;;;24.20;79.30;;;;;;5032800;28;20101;-78
2023/07/22 11:51:21;;;;;;;3.05;0.80;;;24.20;79.90;;;;;;5029395;28;20478;-76
2023/07/22 11:53:51;;;;;;;1.20;0.90;;;24.10;79.80;;;;;;5030335;28;20030;-78
2023/07/22 11:56:28;;;;;;;1.48;0.90;;;24.20;80.00;;;;;;5032217;28;20036;-79
2023/07/22 11:58:55;;;;;;;1.63;0.70;;;24.10;78.80;;;;;;5019284;28;20018;-79
2023/07/22 12:01:22;;;;;;;0.98;0.70;;;24.10;79.30;;;;;;5029185;28;20030;-80
2023/07/22 12:03:48;;;;;;;3.33;1.13;;;24.00;78.80;;;;;;5016744;28;20068;-79
2023/07/22 12:06:15;;;;;;;1.85;0.70;;;24.10;79.70;;;;;;5034679;28;20104;-78
2023/07/22 12:08:48;;;;;;;1.77;0.80;;;24.20;80.00;;;;;;5034606;28;20021;-78
2023/07/22 12:11:21;;;;;;;1.70;0.80;;;24.30;78.50;;;;;;5035138;28;20025;-78
2023/07/22 12:13:50;;;;;;;1.98;0.90;;;24.30;78.40;;;;;;5034254;28;20521;-79
2023/07/22 12:16:25;;;;;;;3.83;0.90;;;24.20;78.00;;;;;;5034756;28;20151;-79
2023/07/22 12:18:55;;;;;;;2.13;1.13;;;24.30;77.20;;;;;;5001189;28;20021;-79
2023/07/22 12:21:20;;;;;;;2.10;0.90;;;24.50;76.00;;;;;;5017013;28;20037;-79
2023/07/22 12:23:46;;;;;;;2.50;0.88;;;24.60;76.00;;;;;;5016128;28;20034;-78
2023/07/22 12:26:11;;;;;;;1.67;0.85;;;24.80;75.70;;;;;;5034508;28;20442;-79
2023/07/22 12:28:37;;;;;;;0.65;0.60;;;24.90;74.70;;;;;;5033114;28;20032;-79
2023/07/22 12:31:03;;;;;;;2.17;1.00;;;25.20;74.70;;;;;;5016056;28;20116;-78
2023/07/22 12:33:28;;;;;;;1.38;1.00;;;25.40;72.50;;;;;;5034316;28;20529;-80
2023/07/22 12:35:56;;;;;;;0.75;0.70;;;25.50;71.80;;;;;;5016140;28;20037;-79
2023/07/22 12:38:21;;;;;;;1.10;0.85;;;25.70;72.10;;;;;;5016300;28;20048;-79
2023/07/22 12:40:47;;;;;;;1.60;0.98;;;25.90;70.40;;;;;;5034149;28;20457;-78
2023/07/22 12:43:12;;;;;;;3.20;0.70;;;25.90;69.40;;;;;;5016884;28;20033;-79
2023/07/22 12:45:38;;;;;;;0.75;0.63;;;26.00;68.90;;;;;;5034205;28;20036;-79